createdAt,value
2022-09-03T00:00:00.186Z,0.98
2022-09-03T00:02:36.644Z,2.50
2022-09-03T00:05:15.873Z,2.75
2022-09-03T00:07:53.245Z,1.40
2022-09-03T00:10:35.464Z,2.13
2022-09-03T00:13:05.656Z,3.25
2022-09-03T00:15:36.099Z,1.90
2022-09-03T00:18:11.171Z,1.58
2022-09-03T00:20:43.370Z,4.35
2022-09-03T00:23:21.815Z,1.40
2022-09-03T00:26:07.275Z,1.60
2022-09-03T00:28:41.891Z,1.08
2022-09-03T00:31:12.686Z,1.42
2022-09-03T00:36:23.671Z,3.90
2022-09-03T00:38:51.654Z,1.75
2022-09-03T00:41:18.718Z,3.38
2022-09-03T00:44:25.027Z,1.38
2022-09-03T00:47:02.404Z,5.53
2022-09-03T00:49:51.077Z,3.55
2022-09-03T00:52:55.446Z,3.70
2022-09-03T00:55:32.352Z,1.88
2022-09-03T00:58:16.707Z,2.05
2022-09-03T01:00:45.680Z,2.22
2022-09-03T01:03:24.182Z,4.70
2022-09-03T01:06:20.211Z,4.07
2022-09-03T01:08:57.734Z,2.53
2022-09-03T01:11:59.534Z,2.90
2022-09-03T01:14:51.401Z,3.53
2022-09-03T01:17:35.801Z,7.25
2022-09-03T01:20:27.358Z,3.30
2022-09-03T01:23:14.449Z,1.90
2022-09-03T01:25:54.805Z,1.35
2022-09-03T01:28:32.957Z,3.63
2022-09-03T01:31:12.133Z,6.22
2022-09-03T01:33:56.303Z,2.13
2022-09-03T01:36:44.672Z,1.40
2022-09-03T01:39:27.112Z,1.73
2022-09-03T01:42:15.809Z,1.88
2022-09-03T01:45:12.932Z,2.53
2022-09-03T01:48:31.015Z,3.30
2022-09-03T01:51:12.432Z,4.28
2022-09-03T01:54:10.939Z,1.83
2022-09-03T01:57:35.612Z,2.47
2022-09-03T02:00:15.697Z,2.75
2022-09-03T02:02:47.885Z,2.05
2022-09-03T02:05:27.574Z,2.90
2022-09-03T02:08:03.000Z,1.60
2022-09-03T02:10:37.922Z,2.33
2022-09-03T02:13:12.246Z,1.48
2022-09-03T02:15:43.797Z,3.70
2022-09-03T02:18:17.252Z,3.67
2022-09-03T02:20:46.889Z,1.50
2022-09-03T02:23:15.599Z,4.75
2022-09-03T02:25:48.163Z,1.48
2022-09-03T02:28:17.012Z,2.58
2022-09-03T02:30:45.322Z,2.58
2022-09-03T02:33:12.853Z,2.15
2022-09-03T02:35:41.788Z,3.35
2022-09-03T02:38:17.101Z,4.20
2022-09-03T02:40:45.788Z,1.65
2022-09-03T02:43:48.185Z,3.80
2022-09-03T02:46:22.455Z,2.00
2022-09-03T02:48:49.741Z,2.50
2022-09-03T02:51:16.861Z,1.80
2022-09-03T02:53:44.747Z,2.05
2022-09-03T02:56:12.246Z,1.48
2022-09-03T02:58:39.545Z,2.90
2022-09-03T03:01:06.740Z,2.88
2022-09-03T03:03:34.219Z,2.28
2022-09-03T03:06:03.810Z,2.33
2022-09-03T03:08:33.016Z,3.85
2022-09-03T03:11:00.845Z,3.15
2022-09-03T03:13:30.003Z,1.73
2022-09-03T03:16:02.594Z,2.00
2022-09-03T03:18:30.415Z,3.40
2022-09-03T03:20:57.675Z,3.75
2022-09-03T03:23:24.904Z,2.00
2022-09-03T03:25:52.061Z,1.65
2022-09-03T03:28:20.650Z,3.13
2022-09-03T03:30:49.073Z,2.22
2022-09-03T03:33:16.383Z,3.72
2022-09-03T03:35:43.750Z,2.08
2022-09-03T03:38:10.946Z,2.67
2022-09-03T03:40:41.088Z,1.98
2022-09-03T03:43:08.278Z,1.55
2022-09-03T03:45:35.429Z,3.97
2022-09-03T03:48:02.748Z,2.97
2022-09-03T03:50:29.909Z,1.92
2022-09-03T03:53:01.170Z,1.60
2022-09-03T03:55:29.005Z,2.00
2022-09-03T03:58:02.197Z,4.07
2022-09-03T04:00:29.640Z,1.75
2022-09-03T04:02:57.669Z,3.10
2022-09-03T04:05:24.847Z,4.97
2022-09-03T04:07:52.147Z,7.03
2022-09-03T04:10:19.234Z,4.57
2022-09-03T04:12:46.539Z,4.47
2022-09-03T04:15:13.676Z,2.67
2022-09-03T04:17:40.817Z,2.70
2022-09-03T04:20:08.188Z,3.75
2022-09-03T04:22:35.308Z,4.10
2022-09-03T04:25:02.447Z,2.63
2022-09-03T04:27:30.480Z,2.67
2022-09-03T04:29:57.590Z,3.90
2022-09-03T04:32:43.376Z,4.38
2022-09-03T04:35:10.503Z,4.10
2022-09-03T04:37:37.655Z,3.63
2022-09-03T04:40:05.326Z,3.72
2022-09-03T04:42:32.431Z,8.32
2022-09-03T04:44:59.759Z,3.83
2022-09-03T04:47:28.233Z,8.75
2022-09-03T04:49:55.388Z,6.63
2022-09-03T04:52:22.489Z,5.72
2022-09-03T04:54:49.823Z,4.38
2022-09-03T04:57:16.963Z,4.82
2022-09-03T04:59:44.913Z,8.02
2022-09-03T05:02:12.293Z,5.70
2022-09-03T05:04:40.127Z,6.35
2022-09-03T05:07:07.528Z,2.97
2022-09-03T05:09:35.043Z,3.38
2022-09-03T05:12:02.239Z,9.68
2022-09-03T05:14:29.727Z,6.25
2022-09-03T05:16:56.858Z,3.72
2022-09-03T05:19:23.974Z,4.15
2022-09-03T05:21:51.155Z,4.95
2022-09-03T05:24:18.727Z,4.85
2022-09-03T05:26:45.897Z,6.35
2022-09-03T05:29:13.127Z,4.55
2022-09-03T05:31:40.428Z,7.05
2022-09-03T05:34:08.632Z,5.03
2022-09-03T05:36:38.258Z,3.25
2022-09-03T05:39:06.190Z,8.95
2022-09-03T05:41:34.375Z,2.60
2022-09-03T05:44:02.299Z,3.08
2022-09-03T05:46:33.656Z,2.28
2022-09-03T05:49:02.565Z,5.95
2022-09-03T05:51:30.705Z,4.00
2022-09-03T05:53:58.655Z,3.55
2022-09-03T05:56:28.179Z,7.13
2022-09-03T05:58:58.153Z,6.55
2022-09-03T06:01:31.304Z,2.65
2022-09-03T06:04:03.835Z,4.68
2022-09-03T06:06:33.441Z,4.68
2022-09-03T06:09:04.722Z,6.43
2022-09-03T06:11:35.465Z,2.95
2022-09-03T06:16:34.885Z,4.80
2022-09-03T06:19:02.836Z,4.32
2022-09-03T06:21:30.129Z,4.70
2022-09-03T06:23:59.751Z,4.05
2022-09-03T06:26:28.932Z,4.82
2022-09-03T06:28:57.371Z,13.02
2022-09-03T06:31:25.687Z,6.80
2022-09-03T06:33:54.741Z,2.08
2022-09-03T06:36:24.768Z,6.28
2022-09-03T06:38:53.766Z,2.97
2022-09-03T06:41:26.306Z,3.45
2022-09-03T06:43:59.143Z,6.28
2022-09-03T06:46:26.376Z,1.67
2022-09-03T06:48:54.336Z,0.40
2022-09-03T06:51:24.140Z,1.50
2022-09-03T06:53:54.674Z,3.70
2022-09-03T06:56:26.485Z,6.28
2022-09-03T06:58:57.188Z,1.05
2022-09-03T07:04:04.480Z,1.42
2022-09-03T07:06:37.402Z,4.57
2022-09-03T07:09:06.274Z,3.08
2022-09-03T07:11:35.885Z,1.30
2022-09-03T07:14:06.168Z,4.68
2022-09-03T07:16:43.922Z,1.52
2022-09-03T07:19:13.473Z,2.33
2022-09-03T07:21:46.533Z,2.88
2022-09-03T07:24:15.503Z,2.30
2022-09-03T07:26:47.129Z,5.60
2022-09-03T07:29:16.106Z,1.73
2022-09-03T07:31:44.301Z,1.85
2022-09-03T07:34:13.555Z,4.20
2022-09-03T07:36:48.883Z,3.35
2022-09-03T07:39:18.335Z,3.42
2022-09-03T07:41:46.698Z,0.40
2022-09-03T07:44:16.378Z,5.93
2022-09-03T07:46:46.233Z,0.90
2022-09-03T07:49:13.764Z,1.55
2022-09-03T07:51:40.952Z,1.83
2022-09-03T07:54:11.611Z,2.92
2022-09-03T07:56:42.191Z,0.50
2022-09-03T07:59:09.674Z,0.77
2022-09-03T08:01:38.362Z,2.25
2022-09-03T08:04:09.742Z,1.55
2022-09-03T08:06:38.335Z,6.47
2022-09-03T08:09:12.019Z,3.42
2022-09-03T08:11:41.624Z,0.40
2022-09-03T08:14:11.366Z,1.23
2022-09-03T08:16:43.984Z,0.30
2022-09-03T08:19:13.306Z,1.58
2022-09-03T08:21:44.769Z,1.92
2022-09-03T08:24:12.491Z,2.25
2022-09-03T08:26:44.289Z,1.67
2022-09-03T08:29:15.002Z,1.20
2022-09-03T08:31:43.178Z,2.88
2022-09-03T08:34:11.952Z,1.45
2022-09-03T08:36:41.369Z,1.20
2022-09-03T08:39:10.867Z,1.30
2022-09-03T08:41:53.364Z,2.77
2022-09-03T08:44:31.492Z,1.27
2022-09-03T08:47:01.471Z,1.10
2022-09-03T08:49:37.496Z,0.55
2022-09-03T08:52:09.122Z,1.23
2022-09-03T08:54:38.214Z,1.85
2022-09-03T08:57:07.928Z,1.45
2022-09-03T08:59:35.134Z,2.63
2022-09-03T09:02:26.751Z,2.55
2022-09-03T09:05:22.167Z,1.48
2022-09-03T09:08:28.127Z,1.08
2022-09-03T09:11:22.777Z,3.35
2022-09-03T09:14:10.964Z,1.85
2022-09-03T09:16:48.087Z,0.85
2022-09-03T09:19:42.187Z,1.23
2022-09-03T09:22:41.085Z,1.08
2022-09-03T09:25:15.579Z,1.08
2022-09-03T09:27:51.922Z,1.40
2022-09-03T09:30:19.916Z,1.58
2022-09-03T09:32:47.524Z,3.22
2022-09-03T09:35:17.652Z,1.73
2022-09-03T09:37:49.625Z,2.75
2022-09-03T09:40:45.225Z,1.48
2022-09-03T09:43:22.305Z,0.98
2022-09-03T09:45:52.794Z,2.60
2022-09-03T09:48:31.418Z,0.80
2022-09-03T09:51:22.554Z,1.20
2022-09-03T09:54:14.397Z,3.08
2022-09-03T09:56:44.910Z,1.17
2022-09-03T09:59:15.501Z,0.80
2022-09-03T10:01:45.040Z,1.08
2022-09-03T10:04:21.798Z,1.40
2022-09-03T10:07:07.818Z,0.95
2022-09-03T10:09:34.967Z,0.38
2022-09-03T10:12:28.738Z,0.80
2022-09-03T10:15:03.910Z,2.85
2022-09-03T10:17:48.987Z,0.85
2022-09-03T10:20:44.427Z,1.13
2022-09-03T10:23:28.880Z,2.63
2022-09-03T10:26:11.407Z,3.88
2022-09-03T10:28:43.844Z,0.57
2022-09-03T10:31:57.070Z,0.75
2022-09-03T10:34:24.725Z,1.17
2022-09-03T10:37:23.895Z,0.93
2022-09-03T10:40:21.663Z,2.75
2022-09-03T10:43:00.624Z,1.83
2022-09-03T10:45:37.751Z,4.15
2022-09-03T10:48:30.233Z,1.00
2022-09-03T10:51:04.329Z,0.90
2022-09-03T10:53:53.546Z,0.80
2022-09-03T10:56:34.053Z,0.93
2022-09-03T10:59:04.220Z,9.98
2022-09-03T11:01:46.529Z,0.80
2022-09-03T11:04:22.788Z,7.40
2022-09-03T11:06:50.086Z,2.97
2022-09-03T11:09:56.961Z,1.00
2022-09-03T11:12:29.727Z,0.52
2022-09-03T11:15:26.211Z,1.50
2022-09-03T11:18:03.203Z,3.28
2022-09-03T11:20:31.338Z,1.27
2022-09-03T11:23:02.303Z,2.45
2022-09-03T11:25:36.917Z,0.57
2022-09-03T11:28:21.257Z,0.70
2022-09-03T11:31:03.771Z,3.08
2022-09-03T11:33:36.139Z,3.35
2022-09-03T11:36:06.723Z,1.38
2022-09-03T11:38:34.657Z,0.75
2022-09-03T11:41:24.383Z,3.22
2022-09-03T11:43:52.053Z,4.47
2022-09-03T11:46:22.242Z,1.02
2022-09-03T11:49:02.425Z,0.95
2022-09-03T11:51:34.225Z,1.73
2022-09-03T11:54:03.172Z,6.30
2022-09-03T11:56:32.232Z,0.60
2022-09-03T11:59:14.902Z,2.70
2022-09-03T12:02:13.919Z,1.00
2022-09-03T12:04:57.249Z,1.15
2022-09-03T12:07:43.131Z,1.15
2022-09-03T12:10:42.120Z,3.33
2022-09-03T12:13:18.332Z,2.38
2022-09-03T12:16:26.989Z,0.55
2022-09-03T12:18:58.407Z,0.50
2022-09-03T12:21:25.909Z,1.50
2022-09-03T12:23:55.552Z,0.68
2022-09-03T12:26:27.656Z,0.40
2022-09-03T12:28:59.965Z,0.50
2022-09-03T12:31:30.079Z,0.70
2022-09-03T12:33:59.431Z,4.30
2022-09-03T12:36:37.212Z,0.63
2022-09-03T12:42:26.090Z,1.27
2022-09-03T12:44:53.656Z,0.63
2022-09-03T12:47:39.601Z,0.70
2022-09-03T12:50:14.154Z,1.65
2022-09-03T12:52:54.351Z,3.60
2022-09-03T12:55:30.344Z,1.55
2022-09-03T12:58:04.165Z,1.05
2022-09-03T13:00:35.067Z,2.10
2022-09-03T13:03:11.669Z,0.70
2022-09-03T13:05:50.695Z,2.15
2022-09-03T13:08:28.709Z,1.95
2022-09-03T13:10:59.498Z,2.20
2022-09-03T13:13:29.599Z,1.27
2022-09-03T13:16:36.352Z,1.38
2022-09-03T13:19:27.257Z,1.67
2022-09-03T13:21:57.810Z,0.63
2022-09-03T13:24:36.516Z,2.15
2022-09-03T13:27:18.933Z,3.30
2022-09-03T13:29:55.487Z,7.93
2022-09-03T13:32:42.542Z,2.45
2022-09-03T13:35:28.384Z,2.47
2022-09-03T13:38:19.675Z,1.92
2022-09-03T13:40:54.472Z,1.48
2022-09-03T13:43:42.674Z,4.50
2022-09-03T13:46:18.094Z,2.88
2022-09-03T13:49:04.488Z,1.33
2022-09-03T13:51:50.442Z,1.23
2022-09-03T13:54:48.256Z,3.35
2022-09-03T13:57:28.969Z,1.27
2022-09-03T14:00:10.250Z,1.08
2022-09-03T14:02:49.612Z,0.98
2022-09-03T14:05:27.376Z,1.42
2022-09-03T14:08:20.515Z,3.25
2022-09-03T14:11:01.013Z,1.63
2022-09-03T14:13:39.211Z,1.00
2022-09-03T14:16:25.398Z,0.88
2022-09-03T14:19:33.931Z,1.88
2022-09-03T14:22:25.543Z,3.05
2022-09-03T14:25:09.404Z,0.70
2022-09-03T14:27:38.774Z,4.05
2022-09-03T14:30:18.309Z,3.95
2022-09-03T14:33:04.398Z,5.85
2022-09-03T14:35:43.613Z,5.30
2022-09-03T14:38:58.211Z,1.90
2022-09-03T14:41:46.993Z,6.75
2022-09-03T14:44:32.991Z,3.60
2022-09-03T14:47:27.640Z,3.35
2022-09-03T14:50:19.888Z,1.65
2022-09-03T14:53:23.492Z,1.33
2022-09-03T14:56:06.945Z,4.00
2022-09-03T14:58:49.269Z,1.83
2022-09-03T15:01:38.691Z,1.13
2022-09-03T15:04:28.791Z,2.63
2022-09-03T15:07:31.142Z,3.63
2022-09-03T15:10:13.944Z,1.73
2022-09-03T15:12:46.628Z,8.48
2022-09-03T15:15:23.287Z,3.58
2022-09-03T15:18:11.124Z,1.65
2022-09-03T15:20:52.455Z,1.10
2022-09-03T15:23:52.000Z,2.53
2022-09-03T15:26:33.000Z,3.58
2022-09-03T15:29:26.499Z,4.50
2022-09-03T15:32:13.914Z,4.50
2022-09-03T15:34:53.792Z,5.57
2022-09-03T15:37:33.224Z,6.25
2022-09-03T15:40:16.535Z,1.85
2022-09-03T15:42:47.030Z,2.75
2022-09-03T15:45:38.593Z,5.72
2022-09-03T15:48:28.999Z,1.40
2022-09-03T15:51:10.129Z,5.53
2022-09-03T15:53:46.397Z,2.03
2022-09-03T15:56:38.854Z,2.80
2022-09-03T15:59:41.331Z,4.22
2022-09-03T16:02:16.630Z,4.75
2022-09-03T16:04:53.634Z,5.05
2022-09-03T16:07:39.804Z,2.90
2022-09-03T16:10:31.007Z,4.15
2022-09-03T16:12:59.375Z,1.50
2022-09-03T16:15:30.830Z,4.75
2022-09-03T16:18:02.623Z,2.97
2022-09-03T16:20:39.156Z,2.70
2022-09-03T16:23:16.161Z,1.77
2022-09-03T16:25:51.936Z,2.55
2022-09-03T16:28:42.955Z,1.77
2022-09-03T16:31:22.786Z,3.30
2022-09-03T16:34:27.779Z,3.93
2022-09-03T16:37:22.297Z,6.40
2022-09-03T16:40:01.029Z,8.02
2022-09-03T16:42:38.752Z,3.88
2022-09-03T16:45:29.957Z,6.25
2022-09-03T16:48:10.148Z,3.92
2022-09-03T16:51:16.132Z,5.65
2022-09-03T16:54:09.043Z,2.47
2022-09-03T16:56:51.502Z,8.98
2022-09-03T16:59:51.700Z,5.55
2022-09-03T17:02:41.485Z,7.20
2022-09-03T17:05:15.498Z,7.70
2022-09-03T17:08:16.476Z,18.95
2022-09-03T17:13:23.726Z,6.05
2022-09-03T17:16:02.645Z,3.95
2022-09-03T17:18:38.572Z,7.85
2022-09-03T17:21:30.498Z,6.45
2022-09-03T17:24:13.935Z,6.43
2022-09-03T17:26:56.973Z,3.97
2022-09-03T17:29:37.391Z,15.23
2022-09-03T17:32:34.767Z,13.70
2022-09-03T17:35:26.178Z,6.50
2022-09-03T17:38:00.589Z,6.15
2022-09-03T17:40:34.543Z,6.50
2022-09-03T17:43:21.096Z,7.15
2022-09-03T17:46:09.192Z,15.57
2022-09-03T17:49:22.770Z,7.00
2022-09-03T17:52:08.587Z,10.00
2022-09-03T17:54:44.885Z,3.90
2022-09-03T17:57:31.537Z,8.57
2022-09-03T18:00:23.110Z,8.65
2022-09-03T18:02:59.515Z,7.28
2022-09-03T18:05:30.502Z,6.28
2022-09-03T18:08:21.712Z,3.50
2022-09-03T18:11:22.998Z,6.07
2022-09-03T18:14:22.635Z,3.58
2022-09-03T18:17:03.977Z,3.05
2022-09-03T18:20:04.713Z,2.70
2022-09-03T18:23:21.271Z,3.15
2022-09-03T18:26:15.835Z,3.00
2022-09-03T18:29:09.179Z,6.55
2022-09-03T18:31:54.907Z,3.90
2022-09-03T18:34:54.324Z,4.60
2022-09-03T18:37:46.233Z,3.50
2022-09-03T18:40:41.394Z,6.10
2022-09-03T18:43:38.923Z,4.80
2022-09-03T18:47:54.462Z,9.10
2022-09-03T18:49:53.214Z,3.25
2022-09-03T18:52:51.100Z,3.13
2022-09-03T18:56:15.079Z,3.63
2022-09-03T18:59:32.206Z,3.45
2022-09-03T19:02:26.344Z,4.43
2022-09-03T19:05:38.339Z,10.98
2022-09-03T19:08:46.176Z,4.20
2022-09-03T19:11:46.280Z,9.98
2022-09-03T19:14:47.368Z,5.97
2022-09-03T19:17:45.376Z,10.43
2022-09-03T19:20:50.407Z,11.40
2022-09-03T19:23:36.261Z,15.73
2022-09-03T19:27:29.843Z,9.57
2022-09-03T19:30:38.587Z,18.80
2022-09-03T19:33:58.154Z,17.33
2022-09-03T19:36:49.269Z,12.95
2022-09-03T19:40:13.005Z,16.98
2022-09-03T19:43:04.574Z,14.00
2022-09-03T19:46:15.031Z,10.73
2022-09-03T19:49:22.023Z,10.25
2022-09-03T19:52:21.843Z,9.38
2022-09-03T19:55:13.324Z,10.80
2022-09-03T19:58:20.432Z,13.32
2022-09-03T20:01:12.960Z,12.43
2022-09-03T20:04:00.889Z,8.20
2022-09-03T20:06:48.804Z,8.93
2022-09-03T20:09:38.765Z,8.00
2022-09-03T20:12:10.208Z,12.10
2022-09-03T20:14:56.409Z,6.65
2022-09-03T20:17:33.883Z,10.10
2022-09-03T20:20:01.114Z,7.18
2022-09-03T20:22:43.011Z,11.02
2022-09-03T20:25:59.490Z,7.40
2022-09-03T20:28:33.468Z,9.18
2022-09-03T20:31:12.538Z,10.63
2022-09-03T20:34:27.249Z,6.88
2022-09-03T20:37:30.106Z,8.40
2022-09-03T20:40:17.142Z,11.07
2022-09-03T20:43:09.277Z,12.45
2022-09-03T20:45:58.026Z,13.07
2022-09-03T20:48:36.870Z,12.52
2022-09-03T20:51:22.786Z,10.90
2022-09-03T20:54:14.191Z,13.60
2022-09-03T20:56:59.731Z,10.95
2022-09-03T20:59:53.543Z,4.90
2022-09-03T21:02:32.168Z,10.45
2022-09-03T21:05:28.260Z,15.15
2022-09-03T21:08:13.975Z,11.05
2022-09-03T21:10:48.242Z,9.27
2022-09-03T21:13:38.632Z,16.25
2022-09-03T21:16:26.873Z,9.48
2022-09-03T21:18:59.433Z,16.27
2022-09-03T21:21:40.485Z,10.80
2022-09-03T21:24:21.014Z,16.90
2022-09-03T21:27:00.523Z,7.95
2022-09-03T21:29:33.016Z,14.02
2022-09-03T21:32:10.303Z,8.93
2022-09-03T21:34:50.784Z,11.02
2022-09-03T21:37:18.847Z,12.85
2022-09-03T21:39:56.312Z,11.93
2022-09-03T21:42:31.045Z,7.57
2022-09-03T21:45:03.881Z,12.05
2022-09-03T21:47:33.995Z,9.82
2022-09-03T21:50:11.976Z,13.15
2022-09-03T21:53:01.444Z,8.05
2022-09-03T21:55:53.394Z,8.27
2022-09-03T21:58:26.602Z,11.93
2022-09-03T22:00:59.837Z,6.45
2022-09-03T22:03:26.978Z,4.72
2022-09-03T22:06:03.274Z,1.00
2022-09-03T22:08:45.397Z,2.00
2022-09-03T22:11:33.249Z,1.85
2022-09-03T22:14:11.410Z,3.15
2022-09-03T22:17:10.863Z,0.95
2022-09-03T22:19:38.993Z,0.63
2022-09-03T22:22:40.865Z,4.00
2022-09-03T22:25:17.491Z,1.25
2022-09-03T22:27:44.536Z,2.15
2022-09-03T22:30:21.626Z,0.65
2022-09-03T22:33:05.593Z,2.05
2022-09-03T22:35:58.165Z,1.98
2022-09-03T22:38:30.731Z,2.08
2022-09-03T22:41:30.452Z,2.63
2022-09-03T22:44:28.965Z,1.55
2022-09-03T22:47:26.903Z,2.67
2022-09-03T22:50:14.281Z,3.28
2022-09-03T22:52:54.478Z,5.10
2022-09-03T22:55:25.538Z,3.28
2022-09-03T22:58:24.974Z,4.43
2022-09-03T23:01:23.922Z,1.98
2022-09-03T23:04:01.478Z,3.47
2022-09-03T23:06:39.472Z,2.25
2022-09-03T23:09:14.254Z,3.55
2022-09-03T23:11:46.681Z,1.90
2022-09-03T23:14:31.838Z,1.85
2022-09-03T23:17:11.248Z,1.80
2022-09-03T23:19:44.430Z,4.15
2022-09-03T23:22:32.685Z,2.58
2022-09-03T23:25:19.647Z,2.72
2022-09-03T23:27:49.431Z,2.67
2022-09-03T23:30:16.853Z,3.20
2022-09-03T23:32:44.029Z,2.55
2022-09-03T23:35:17.858Z,2.72
2022-09-03T23:38:00.998Z,2.08
2022-09-03T23:40:40.516Z,4.53
2022-09-03T23:43:16.473Z,2.25
2022-09-03T23:46:15.806Z,1.70
2022-09-03T23:48:42.971Z,2.67
2022-09-03T23:51:42.129Z,5.00
2022-09-03T23:54:37.755Z,4.03
2022-09-03T23:57:44.827Z,7.35
